sensor_id;sensor_type;location;lat;lon;timestamp;pressure;altitude;pressure_sealevel;temperature;humidity
71149;BME280;59072;42.144;25.200;2023-07-24T00:02:05;100212.69;;;24.81;60.86
71149;BME280;59072;42.144;25.200;2023-07-24T00:04:31;100211.13;;;25.12;59.72
71149;BME280;59072;42.144;25.200;2023-07-24T00:06:56;100206.63;;;25.16;62.42
71149;BME280;59072;42.144;25.200;2023-07-24T00:09:22;100198.06;;;24.77;63.88
71149;BME280;59072;42.144;25.200;2023-07-24T00:11:47;100205.78;;;25.06;61.69
71149;BME280;59072;42.144;25.200;2023-07-24T00:14:13;100200.63;;;25.28;62.39
71149;BME280;59072;42.144;25.200;2023-07-24T00:16:39;100205.19;;;24.64;63.84
71149;BME280;59072;42.144;25.200;2023-07-24T00:19:05;100201.88;;;24.76;65.63
71149;BME280;59072;42.144;25.200;2023-07-24T00:21:30;100214.63;;;25.35;62.69
71149;BME280;59072;42.144;25.200;2023-07-24T00:23:58;100208.66;;;25.33;63.69
71149;BME280;59072;42.144;25.200;2023-07-24T00:26:23;100208.88;;;25.14;64.25
71149;BME280;59072;42.144;25.200;2023-07-24T00:28:49;100200.50;;;25.41;62.63
71149;BME280;59072;42.144;25.200;2023-07-24T00:31:14;100201.97;;;25.16;64.87
71149;BME280;59072;42.144;25.200;2023-07-24T00:33:39;100200.16;;;24.80;66.25
71149;BME280;59072;42.144;25.200;2023-07-24T00:36:05;100192.38;;;24.65;68.85
71149;BME280;59072;42.144;25.200;2023-07-24T00:38:30;100199.75;;;24.64;68.09
71149;BME280;59072;42.144;25.200;2023-07-24T00:40:56;100196.94;;;24.78;67.24
71149;BME280;59072;42.144;25.200;2023-07-24T00:43:21;100195.38;;;24.86;68.09
71149;BME280;59072;42.144;25.200;2023-07-24T00:45:47;100203.81;;;24.76;68.82
71149;BME280;59072;42.144;25.200;2023-07-24T00:48:15;100197.84;;;24.96;67.93
71149;BME280;59072;42.144;25.200;2023-07-24T00:50:44;100195.88;;;24.65;69.70
71149;BME280;59072;42.144;25.200;2023-07-24T00:53:11;100197.44;;;24.80;67.99
71149;BME280;59072;42.144;25.200;2023-07-24T00:55:37;100192.75;;;24.36;71.83
71149;BME280;59072;42.144;25.200;2023-07-24T00:58:03;100195.69;;;24.62;71.02
71149;BME280;59072;42.144;25.200;2023-07-24T01:00:29;100199.41;;;24.66;70.75
71149;BME280;59072;42.144;25.200;2023-07-24T01:02:55;100194.03;;;24.75;69.33
71149;BME280;59072;42.144;25.200;2023-07-24T01:05:22;100195.00;;;24.34;71.56
71149;BME280;59072;42.144;25.200;2023-07-24T01:07:50;100190.56;;;24.24;72.85
71149;BME280;59072;42.144;25.200;2023-07-24T01:10:16;100180.88;;;24.32;72.49
71149;BME280;59072;42.144;25.200;2023-07-24T01:12:57;100171.91;;;24.54;70.73
71149;BME280;59072;42.144;25.200;2023-07-24T01:15:36;100169.13;;;24.31;72.48
71149;BME280;59072;42.144;25.200;2023-07-24T01:18:08;100185.03;;;24.52;72.50
71149;BME280;59072;42.144;25.200;2023-07-24T01:20:37;100190.38;;;24.20;73.94
71149;BME280;59072;42.144;25.200;2023-07-24T01:25:35;100179.53;;;24.29;75.02
71149;BME280;59072;42.144;25.200;2023-07-24T01:28:08;100192.81;;;24.08;76.11
71149;BME280;59072;42.144;25.200;2023-07-24T01:30:34;100190.19;;;24.17;75.32
71149;BME280;59072;42.144;25.200;2023-07-24T01:33:00;100195.59;;;24.31;75.11
71149;BME280;59072;42.144;25.200;2023-07-24T01:35:26;100194.25;;;24.05;75.94
71149;BME280;59072;42.144;25.200;2023-07-24T01:37:53;100191.38;;;24.24;74.92
71149;BME280;59072;42.144;25.200;2023-07-24T01:40:21;100196.94;;;24.78;71.89
71149;BME280;59072;42.144;25.200;2023-07-24T01:42:48;100199.00;;;24.50;73.91
71149;BME280;59072;42.144;25.200;2023-07-24T01:45:15;100191.13;;;24.71;71.88
71149;BME280;59072;42.144;25.200;2023-07-24T01:47:40;100198.66;;;24.74;72.20
71149;BME280;59072;42.144;25.200;2023-07-24T01:50:06;100191.63;;;24.51;74.26
71149;BME280;59072;42.144;25.200;2023-07-24T01:52:32;100176.41;;;24.36;74.81
71149;BME280;59072;42.144;25.200;2023-07-24T01:54:57;100190.28;;;24.48;74.25
71149;BME280;59072;42.144;25.200;2023-07-24T01:57:23;100199.13;;;24.67;72.37
71149;BME280;59072;42.144;25.200;2023-07-24T01:59:48;100206.84;;;24.52;73.74
71149;BME280;59072;42.144;25.200;2023-07-24T02:02:14;100208.59;;;24.70;72.73
71149;BME280;59072;42.144;25.200;2023-07-24T02:04:39;100205.25;;;24.51;74.52
71149;BME280;59072;42.144;25.200;2023-07-24T02:07:05;100204.97;;;24.38;74.94
71149;BME280;59072;42.144;25.200;2023-07-24T02:09:34;100196.88;;;24.70;73.56
71149;BME280;59072;42.144;25.200;2023-07-24T02:11:59;100197.81;;;24.65;73.46
71149;BME280;59072;42.144;25.200;2023-07-24T02:14:27;100204.84;;;24.89;72.70
71149;BME280;59072;42.144;25.200;2023-07-24T02:16:53;100208.56;;;25.15;71.40
71149;BME280;59072;42.144;25.200;2023-07-24T02:19:18;100189.56;;;24.20;76.05
71149;BME280;59072;42.144;25.200;2023-07-24T02:21:44;100209.56;;;24.52;75.23
71149;BME280;59072;42.144;25.200;2023-07-24T02:24:09;100202.13;;;24.66;74.57
71149;BME280;59072;42.144;25.200;2023-07-24T02:26:35;100199.28;;;24.49;74.75
71149;BME280;59072;42.144;25.200;2023-07-24T02:29:00;100194.84;;;24.75;74.26
71149;BME280;59072;42.144;25.200;2023-07-24T02:31:26;100193.72;;;24.54;74.73
71149;BME280;59072;42.144;25.200;2023-07-24T02:33:51;100195.06;;;24.42;77.48
71149;BME280;59072;42.144;25.200;2023-07-24T02:36:16;100207.97;;;24.51;76.37
71149;BME280;59072;42.144;25.200;2023-07-24T02:38:42;100206.47;;;24.90;74.19
71149;BME280;59072;42.144;25.200;2023-07-24T02:41:07;100207.22;;;25.04;73.55
71149;BME280;59072;42.144;25.200;2023-07-24T02:43:33;100205.84;;;24.70;75.53
71149;BME280;59072;42.144;25.200;2023-07-24T02:46:01;100208.91;;;24.91;74.97
71149;BME280;59072;42.144;25.200;2023-07-24T02:48:29;100216.75;;;24.93;76.34
71149;BME280;59072;42.144;25.200;2023-07-24T02:50:59;100217.63;;;25.02;74.17
71149;BME280;59072;42.144;25.200;2023-07-24T02:53:25;100216.56;;;25.12;73.74
71149;BME280;59072;42.144;25.200;2023-07-24T02:55:55;100207.44;;;24.49;78.84
71149;BME280;59072;42.144;25.200;2023-07-24T02:58:23;100219.88;;;25.00;75.66
71149;BME280;59072;42.144;25.200;2023-07-24T03:00:48;100216.88;;;25.10;75.29
71149;BME280;59072;42.144;25.200;2023-07-24T03:03:13;100211.72;;;25.09;74.46
71149;BME280;59072;42.144;25.200;2023-07-24T03:05:41;100194.69;;;24.58;78.58
71149;BME280;59072;42.144;25.200;2023-07-24T03:08:07;100206.03;;;24.51;79.47
71149;BME280;59072;42.144;25.200;2023-07-24T03:10:32;100208.47;;;24.75;76.49
71149;BME280;59072;42.144;25.200;2023-07-24T03:13:00;100210.56;;;25.23;76.93
71149;BME280;59072;42.144;25.200;2023-07-24T03:15:25;100214.03;;;25.15;75.94
71149;BME280;59072;42.144;25.200;2023-07-24T03:17:51;100209.09;;;24.95;79.60
71149;BME280;59072;42.144;25.200;2023-07-24T03:20:18;100213.03;;;25.11;77.06
71149;BME280;59072;42.144;25.200;2023-07-24T03:22:44;100215.38;;;25.26;76.67
71149;BME280;59072;42.144;25.200;2023-07-24T03:25:09;100206.44;;;25.12;76.98
71149;BME280;59072;42.144;25.200;2023-07-24T03:27:35;100204.72;;;25.16;76.82
71149;BME280;59072;42.144;25.200;2023-07-24T03:30:00;100210.28;;;25.34;75.88
71149;BME280;59072;42.144;25.200;2023-07-24T03:32:28;100211.84;;;25.26;78.31
71149;BME280;59072;42.144;25.200;2023-07-24T03:34:53;100205.13;;;25.01;78.84
71149;BME280;59072;42.144;25.200;2023-07-24T03:37:19;100195.31;;;25.00;78.76
71149;BME280;59072;42.144;25.200;2023-07-24T03:39:46;100194.28;;;25.18;76.42
71149;BME280;59072;42.144;25.200;2023-07-24T03:42:12;100196.78;;;25.37;77.70
71149;BME280;59072;42.144;25.200;2023-07-24T03:44:39;100197.66;;;25.15;78.38
71149;BME280;59072;42.144;25.200;2023-07-24T03:47:05;100205.63;;;25.03;79.51
71149;BME280;59072;42.144;25.200;2023-07-24T03:49:31;100195.31;;;25.00;80.91
71149;BME280;59072;42.144;25.200;2023-07-24T03:51:56;100191.94;;;25.25;77.69
71149;BME280;59072;42.144;25.200;2023-07-24T03:54:22;100193.19;;;25.19;78.53
71149;BME280;59072;42.144;25.200;2023-07-24T03:56:47;100200.50;;;25.10;79.42
71149;BME280;59072;42.144;25.200;2023-07-24T03:59:12;100198.00;;;24.91;81.15
71149;BME280;59072;42.144;25.200;2023-07-24T04:01:40;100194.84;;;24.75;81.77
71149;BME280;59072;42.144;25.200;2023-07-24T04:04:06;100197.41;;;25.25;78.71
71149;BME280;59072;42.144;25.200;2023-07-24T04:06:31;100195.72;;;25.47;78.63
71149;BME280;59072;42.144;25.200;2023-07-24T04:08:57;100205.56;;;25.65;77.31
71149;BME280;59072;42.144;25.200;2023-07-24T04:11:22;100201.38;;;25.59;77.37
71149;BME280;59072;42.144;25.200;2023-07-24T04:13:47;100214.06;;;25.64;77.75
71149;BME280;59072;42.144;25.200;2023-07-24T04:16:13;100213.22;;;25.46;78.41
71149;BME280;59072;42.144;25.200;2023-07-24T04:18:38;100213.16;;;25.69;77.11
71149;BME280;59072;42.144;25.200;2023-07-24T04:21:04;100218.06;;;25.49;78.78
71149;BME280;59072;42.144;25.200;2023-07-24T04:23:29;100226.47;;;25.30;80.15
71149;BME280;59072;42.144;25.200;2023-07-24T04:25:54;100218.91;;;25.27;77.16
71149;BME280;59072;42.144;25.200;2023-07-24T04:28:20;100220.22;;;25.30;76.63
71149;BME280;59072;42.144;25.200;2023-07-24T04:30:47;100214.78;;;25.30;75.74
71149;BME280;59072;42.144;25.200;2023-07-24T04:33:13;100217.72;;;25.42;74.82
71149;BME280;59072;42.144;25.200;2023-07-24T04:35:38;100224.16;;;25.46;74.72
71149;BME280;59072;42.144;25.200;2023-07-24T04:38:04;100231.41;;;25.59;74.33
71149;BME280;59072;42.144;25.200;2023-07-24T04:40:32;100222.47;;;25.28;75.59
71149;BME280;59072;42.144;25.200;2023-07-24T04:42:57;100228.47;;;25.47;75.48
71149;BME280;59072;42.144;25.200;2023-07-24T04:45:23;100231.22;;;25.47;75.03
71149;BME280;59072;42.144;25.200;2023-07-24T04:47:48;100231.94;;;25.70;75.32
71149;BME280;59072;42.144;25.200;2023-07-24T04:50:14;100232.56;;;25.27;76.69
71149;BME280;59072;42.144;25.200;2023-07-24T04:52:39;100226.31;;;25.26;77.03
71149;BME280;59072;42.144;25.200;2023-07-24T04:55:05;100219.09;;;24.77;79.99
71149;BME280;59072;42.144;25.200;2023-07-24T04:57:33;100213.84;;;24.44;81.88
71149;BME280;59072;42.144;25.200;2023-07-24T04:59:59;100229.66;;;24.78;79.90
71149;BME280;59072;42.144;25.200;2023-07-24T05:02:24;100231.47;;;24.83;80.16
71149;BME280;59072;42.144;25.200;2023-07-24T05:04:49;100236.44;;;25.03;79.42
71149;BME280;59072;42.144;25.200;2023-07-24T05:07:15;100222.47;;;24.82;80.89
71149;BME280;59072;42.144;25.200;2023-07-24T05:09:40;100232.41;;;25.01;81.03
71149;BME280;59072;42.144;25.200;2023-07-24T05:12:06;100231.09;;;24.98;80.97
71149;BME280;59072;42.144;25.200;2023-07-24T05:14:31;100230.03;;;24.85;82.93
71149;BME280;59072;42.144;25.200;2023-07-24T05:16:57;100247.03;;;25.05;81.25
71149;BME280;59072;42.144;25.200;2023-07-24T05:19:22;100242.31;;;25.19;80.88
71149;BME280;59072;42.144;25.200;2023-07-24T05:21:48;100245.81;;;25.42;79.54
71149;BME280;59072;42.144;25.200;2023-07-24T05:24:13;100243.72;;;25.17;81.78
71149;BME280;59072;42.144;25.200;2023-07-24T05:26:38;100250.75;;;25.32;80.60
71149;BME280;59072;42.144;25.200;2023-07-24T05:29:04;100242.44;;;25.45;79.61
71149;BME280;59072;42.144;25.200;2023-07-24T05:31:29;100244.00;;;25.78;78.10
71149;BME280;59072;42.144;25.200;2023-07-24T05:33:54;100254.88;;;26.00;75.96
71149;BME280;59072;42.144;25.200;2023-07-24T05:36:20;100262.94;;;25.74;77.16
71149;BME280;59072;42.144;25.200;2023-07-24T05:38:45;100264.28;;;25.85;76.96
71149;BME280;59072;42.144;25.200;2023-07-24T05:41:11;100269.63;;;25.91;76.65
71149;BME280;59072;42.144;25.200;2023-07-24T05:43:49;100263.22;;;25.55;78.62
71149;BME280;59072;42.144;25.200;2023-07-24T05:46:15;100261.25;;;25.87;77.09
71149;BME280;59072;42.144;25.200;2023-07-24T05:48:41;100270.56;;;25.86;75.93
71149;BME280;59072;42.144;25.200;2023-07-24T05:51:06;100266.53;;;25.83;76.86
71149;BME280;59072;42.144;25.200;2023-07-24T05:53:31;100270.22;;;25.79;76.70
71149;BME280;59072;42.144;25.200;2023-07-24T05:55:58;100259.78;;;25.81;76.55
71149;BME280;59072;42.144;25.200;2023-07-24T05:58:24;100265.66;;;26.05;75.28
71149;BME280;59072;42.144;25.200;2023-07-24T06:00:50;100269.38;;;26.27;73.45
71149;BME280;59072;42.144;25.200;2023-07-24T06:03:15;100266.47;;;26.06;75.28
71149;BME280;59072;42.144;25.200;2023-07-24T06:05:41;100262.50;;;26.30;74.14
71149;BME280;59072;42.144;25.200;2023-07-24T06:08:06;100258.16;;;26.37;73.31
71149;BME280;59072;42.144;25.200;2023-07-24T06:10:34;100257.72;;;26.61;71.75
71149;BME280;59072;42.144;25.200;2023-07-24T06:12:59;100255.59;;;26.76;71.17
71149;BME280;59072;42.144;25.200;2023-07-24T06:15:24;100254.00;;;26.66;71.08
71149;BME280;59072;42.144;25.200;2023-07-24T06:17:50;100253.97;;;26.49;72.98
71149;BME280;59072;42.144;25.200;2023-07-24T06:20:15;100248.19;;;26.41;72.49
71149;BME280;59072;42.144;25.200;2023-07-24T06:22:41;100241.59;;;26.51;72.01
71149;BME280;59072;42.144;25.200;2023-07-24T06:25:07;100240.66;;;26.73;72.34
71149;BME280;59072;42.144;25.200;2023-07-24T06:27:32;100236.63;;;26.62;73.49
71149;BME280;59072;42.144;25.200;2023-07-24T06:29:57;100230.81;;;26.90;71.74
71149;BME280;59072;42.144;25.200;2023-07-24T06:32:23;100236.41;;;27.02;71.36
71149;BME280;59072;42.144;25.200;2023-07-24T06:34:48;100236.13;;;26.86;72.09
71149;BME280;59072;42.144;25.200;2023-07-24T06:37:14;100236.44;;;26.50;74.52
71149;BME280;59072;42.144;25.200;2023-07-24T06:39:39;100236.09;;;26.95;72.70
71149;BME280;59072;42.144;25.200;2023-07-24T06:42:05;100236.75;;;27.00;71.31
71149;BME280;59072;42.144;25.200;2023-07-24T06:44:30;100228.97;;;27.11;71.10
71149;BME280;59072;42.144;25.200;2023-07-24T06:46:58;100233.22;;;26.91;71.28
71149;BME280;59072;42.144;25.200;2023-07-24T06:49:24;100222.59;;;26.90;71.75
71149;BME280;59072;42.144;25.200;2023-07-24T06:51:49;100227.19;;;27.15;71.81
71149;BME280;59072;42.144;25.200;2023-07-24T06:54:15;100221.88;;;27.36;71.46
71149;BME280;59072;42.144;25.200;2023-07-24T06:56:40;100217.44;;;27.53;68.92
71149;BME280;59072;42.144;25.200;2023-07-24T06:59:05;100223.31;;;27.34;69.54
71149;BME280;59072;42.144;25.200;2023-07-24T07:01:31;100213.03;;;27.31;70.66
71149;BME280;59072;42.144;25.200;2023-07-24T07:03:56;100216.91;;;27.12;71.48
71149;BME280;59072;42.144;25.200;2023-07-24T07:06:22;100214.44;;;27.37;70.50
71149;BME280;59072;42.144;25.200;2023-07-24T07:08:47;100214.59;;;27.32;69.97
71149;BME280;59072;42.144;25.200;2023-07-24T07:11:12;100210.25;;;27.39;69.72
71149;BME280;59072;42.144;25.200;2023-07-24T07:13:38;100218.06;;;27.58;68.68
71149;BME280;59072;42.144;25.200;2023-07-24T07:16:04;100211.94;;;27.91;66.72
71149;BME280;59072;42.144;25.200;2023-07-24T07:18:29;100209.88;;;27.88;67.01
71149;BME280;59072;42.144;25.200;2023-07-24T07:20:54;100198.78;;;27.76;67.96
71149;BME280;59072;42.144;25.200;2023-07-24T07:23:23;100209.78;;;27.97;66.94
71149;BME280;59072;42.144;25.200;2023-07-24T07:25:50;100196.31;;;28.13;65.60
71149;BME280;59072;42.144;25.200;2023-07-24T07:28:16;100194.38;;;28.13;65.92
71149;BME280;59072;42.144;25.200;2023-07-24T07:30:42;100187.03;;;28.26;66.64
71149;BME280;59072;42.144;25.200;2023-07-24T07:33:08;100188.91;;;28.34;65.35
71149;BME280;59072;42.144;25.200;2023-07-24T07:35:39;100187.00;;;28.68;65.38
71149;BME280;59072;42.144;25.200;2023-07-24T07:38:06;100189.34;;;28.57;64.71
71149;BME280;59072;42.144;25.200;2023-07-24T07:40:32;100182.00;;;28.82;64.71
71149;BME280;59072;42.144;25.200;2023-07-24T07:42:58;100190.47;;;29.23;61.80
71149;BME280;59072;42.144;25.200;2023-07-24T07:45:24;100184.84;;;29.32;61.00
71149;BME280;59072;42.144;25.200;2023-07-24T07:47:49;100183.72;;;29.57;59.63
71149;BME280;59072;42.144;25.200;2023-07-24T07:50:15;100180.97;;;29.57;60.42
71149;BME280;59072;42.144;25.200;2023-07-24T07:52:41;100182.81;;;29.53;61.78
71149;BME280;59072;42.144;25.200;2023-07-24T07:55:06;100176.97;;;29.55;59.98
71149;BME280;59072;42.144;25.200;2023-07-24T07:57:35;100166.53;;;29.85;59.94
71149;BME280;59072;42.144;25.200;2023-07-24T08:00:02;100167.69;;;29.72;59.12
71149;BME280;59072;42.144;25.200;2023-07-24T08:02:28;100156.34;;;29.61;59.38
71149;BME280;59072;42.144;25.200;2023-07-24T08:48:42;100135.09;;;31.31;46.76
71149;BME280;59072;42.144;25.200;2023-07-24T08:51:09;100143.72;;;31.61;46.29
71149;BME280;59072;42.144;25.200;2023-07-24T08:53:36;100149.78;;;31.86;47.48
71149;BME280;59072;42.144;25.200;2023-07-24T08:56:09;100144.97;;;31.83;46.66
71149;BME280;59072;42.144;25.200;2023-07-24T08:58:35;100137.53;;;32.03;45.84
71149;BME280;59072;42.144;25.200;2023-07-24T09:01:02;100135.75;;;31.95;44.50
71149;BME280;59072;42.144;25.200;2023-07-24T09:03:35;100139.28;;;32.11;42.52
71149;BME280;59072;42.144;25.200;2023-07-24T09:06:01;100128.28;;;32.54;43.12
71149;BME280;59072;42.144;25.200;2023-07-24T09:10:56;100131.13;;;31.99;45.27
71149;BME280;59072;42.144;25.200;2023-07-24T09:13:22;100114.66;;;32.41;45.98
71149;BME280;59072;42.144;25.200;2023-07-24T09:15:47;100128.44;;;32.22;43.47
71149;BME280;59072;42.144;25.200;2023-07-24T09:18:12;100130.75;;;32.59;43.58
71149;BME280;59072;42.144;25.200;2023-07-24T09:20:40;100121.59;;;32.55;41.32
71149;BME280;59072;42.144;25.200;2023-07-24T09:23:07;100130.63;;;32.32;38.41
71149;BME280;59072;42.144;25.200;2023-07-24T09:25:34;100127.72;;;32.25;38.81
71149;BME280;59072;42.144;25.200;2023-07-24T09:28:08;100124.53;;;32.23;39.69
71149;BME280;59072;42.144;25.200;2023-07-24T09:30:34;100120.72;;;32.51;39.88
71149;BME280;59072;42.144;25.200;2023-07-24T09:32:59;100120.22;;;32.88;37.72
71149;BME280;59072;42.144;25.200;2023-07-24T09:35:25;100114.13;;;33.01;39.23
71149;BME280;59072;42.144;25.200;2023-07-24T09:38:09;100108.91;;;33.19;40.71
71149;BME280;59072;42.144;25.200;2023-07-24T09:40:45;100112.09;;;33.21;38.93
71149;BME280;59072;42.144;25.200;2023-07-24T09:43:18;100106.69;;;33.29;39.41
71149;BME280;59072;42.144;25.200;2023-07-24T09:45:45;100101.47;;;33.50;39.90
71149;BME280;59072;42.144;25.200;2023-07-24T09:48:17;100089.75;;;33.60;38.58
71149;BME280;59072;42.144;25.200;2023-07-24T09:50:46;100092.59;;;33.94;37.44
71149;BME280;59072;42.144;25.200;2023-07-24T09:56:04;100082.25;;;33.91;37.56
71149;BME280;59072;42.144;25.200;2023-07-24T09:58:32;100085.50;;;33.67;35.87
71149;BME280;59072;42.144;25.200;2023-07-24T10:00:58;100075.81;;;33.80;36.47
71149;BME280;59072;42.144;25.200;2023-07-24T10:03:27;100077.34;;;34.11;35.17
71149;BME280;59072;42.144;25.200;2023-07-24T10:05:53;100067.44;;;34.10;35.52
71149;BME280;59072;42.144;25.200;2023-07-24T10:08:21;100065.31;;;34.71;34.27
71149;BME280;59072;42.144;25.200;2023-07-24T10:10:47;100066.56;;;34.77;32.82
71149;BME280;59072;42.144;25.200;2023-07-24T10:13:16;100056.53;;;34.21;32.73
71149;BME280;59072;42.144;25.200;2023-07-24T10:15:46;100051.19;;;34.42;34.64
71149;BME280;59072;42.144;25.200;2023-07-24T10:18:15;100043.56;;;34.73;32.49
71149;BME280;59072;42.144;25.200;2023-07-24T10:20:42;100035.72;;;34.79;33.37
71149;BME280;59072;42.144;25.200;2023-07-24T10:23:11;100047.91;;;35.19;31.19
71149;BME280;59072;42.144;25.200;2023-07-24T10:25:41;100044.50;;;34.88;31.11
71149;BME280;59072;42.144;25.200;2023-07-24T10:28:12;100036.19;;;34.92;31.80
71149;BME280;59072;42.144;25.200;2023-07-24T10:30:39;100040.38;;;35.27;28.99
71149;BME280;59072;42.144;25.200;2023-07-24T10:33:05;100046.34;;;35.29;29.88
71149;BME280;59072;42.144;25.200;2023-07-24T10:35:51;100041.06;;;35.79;29.18
71149;BME280;59072;42.144;25.200;2023-07-24T10:38:17;100040.69;;;35.80;27.88
71149;BME280;59072;42.144;25.200;2023-07-24T10:40:45;100026.00;;;35.80;26.42
71149;BME280;59072;42.144;25.200;2023-07-24T10:43:17;100032.88;;;35.31;25.25
71149;BME280;59072;42.144;25.200;2023-07-24T10:45:48;100039.44;;;35.71;24.02
71149;BME280;59072;42.144;25.200;2023-07-24T10:48:15;100028.00;;;35.83;24.19
71149;BME280;59072;42.144;25.200;2023-07-24T10:50:43;100013.44;;;36.22;23.91
71149;BME280;59072;42.144;25.200;2023-07-24T10:53:13;100014.22;;;36.26;23.07
71149;BME280;59072;42.144;25.200;2023-07-24T10:55:38;100004.72;;;36.56;24.36
71149;BME280;59072;42.144;25.200;2023-07-24T10:58:06;100016.22;;;36.58;22.40
71149;BME280;59072;42.144;25.200;2023-07-24T11:00:31;100005.81;;;35.97;22.43
71149;BME280;59072;42.144;25.200;2023-07-24T11:02:57;99997.50;;;35.87;25.23
71149;BME280;59072;42.144;25.200;2023-07-24T11:05:23;99990.81;;;36.20;24.96
71149;BME280;59072;42.144;25.200;2023-07-24T11:07:48;99988.84;;;36.38;23.76
71149;BME280;59072;42.144;25.200;2023-07-24T11:10:18;99990.03;;;36.73;23.39
71149;BME280;59072;42.144;25.200;2023-07-24T11:12:43;99978.91;;;36.84;23.81
71149;BME280;59072;42.144;25.200;2023-07-24T11:15:10;99977.69;;;37.03;22.63
71149;BME280;59072;42.144;25.200;2023-07-24T11:17:37;99970.16;;;36.86;22.72
71149;BME280;59072;42.144;25.200;2023-07-24T11:20:13;99970.56;;;36.91;22.87
71149;BME280;59072;42.144;25.200;2023-07-24T11:22:40;99955.50;;;36.60;22.52
71149;BME280;59072;42.144;25.200;2023-07-24T11:25:06;99962.94;;;37.10;21.44
71149;BME280;59072;42.144;25.200;2023-07-24T11:27:32;99959.28;;;37.42;21.46
71149;BME280;59072;42.144;25.200;2023-07-24T11:30:01;99954.44;;;37.53;20.39
71149;BME280;59072;42.144;25.200;2023-07-24T11:32:26;99951.53;;;37.78;20.38
71149;BME280;59072;42.144;25.200;2023-07-24T11:34:52;99954.56;;;38.02;20.64
71149;BME280;59072;42.144;25.200;2023-07-24T11:37:20;99957.34;;;38.02;20.09
71149;BME280;59072;42.144;25.200;2023-07-24T11:40:00;99938.59;;;37.50;21.20
71149;BME280;59072;42.144;25.200;2023-07-24T11:42:48;99941.78;;;38.15;21.07
71149;BME280;59072;42.144;25.200;2023-07-24T11:45:14;99942.88;;;37.69;21.00
71149;BME280;59072;42.144;25.200;2023-07-24T11:47:50;99931.28;;;37.77;21.56
71149;BME280;59072;42.144;25.200;2023-07-24T11:50:17;99937.34;;;37.54;22.00
71149;BME280;59072;42.144;25.200;2023-07-24T11:52:50;99922.59;;;37.68;21.56
71149;BME280;59072;42.144;25.200;2023-07-24T11:55:18;99923.44;;;38.21;19.93
71149;BME280;59072;42.144;25.200;2023-07-24T11:58:04;99917.84;;;37.62;21.21
71149;BME280;59072;42.144;25.200;2023-07-24T12:00:35;99913.44;;;38.24;21.74
71149;BME280;59072;42.144;25.200;2023-07-24T12:03:01;99910.00;;;38.54;22.30
71149;BME280;59072;42.144;25.200;2023-07-24T12:05:26;99908.03;;;38.47;21.68
71149;BME280;59072;42.144;25.200;2023-07-24T12:07:54;99903.34;;;37.88;20.85
71149;BME280;59072;42.144;25.200;2023-07-24T12:10:27;99901.19;;;38.17;20.13
71149;BME280;59072;42.144;25.200;2023-07-24T12:12:53;99907.44;;;38.70;20.24
71149;BME280;59072;42.144;25.200;2023-07-24T12:15:19;99903.66;;;39.22;19.10
71149;BME280;59072;42.144;25.200;2023-07-24T12:17:44;99908.69;;;39.62;18.26
71149;BME280;59072;42.144;25.200;2023-07-24T12:20:10;99894.91;;;39.51;18.98
71149;BME280;59072;42.144;25.200;2023-07-24T12:22:37;99909.56;;;39.58;17.97
71149;BME280;59072;42.144;25.200;2023-07-24T12:25:03;99897.53;;;39.62;18.50
71149;BME280;59072;42.144;25.200;2023-07-24T12:27:29;99884.91;;;39.81;18.75
71149;BME280;59072;42.144;25.200;2023-07-24T12:29:55;99893.47;;;39.08;19.13
71149;BME280;59072;42.144;25.200;2023-07-24T12:32:20;99891.78;;;38.80;19.01
71149;BME280;59072;42.144;25.200;2023-07-24T12:34:48;99888.19;;;39.17;19.02
71149;BME280;59072;42.144;25.200;2023-07-24T12:37:14;99889.81;;;39.46;19.15
71149;BME280;59072;42.144;25.200;2023-07-24T12:39:39;99886.81;;;39.87;17.94
71149;BME280;59072;42.144;25.200;2023-07-24T12:42:05;99877.50;;;39.94;18.79
71149;BME280;59072;42.144;25.200;2023-07-24T12:44:31;99886.09;;;39.80;18.33
71149;BME280;59072;42.144;25.200;2023-07-24T12:46:57;99882.84;;;39.85;18.04
71149;BME280;59072;42.144;25.200;2023-07-24T12:49:25;99875.63;;;40.11;17.78
71149;BME280;59072;42.144;25.200;2023-07-24T12:51:51;99873.47;;;39.71;19.31
71149;BME280;59072;42.144;25.200;2023-07-24T12:54:16;99870.47;;;39.58;18.73
71149;BME280;59072;42.144;25.200;2023-07-24T12:56:43;99874.03;;;39.32;18.77
71149;BME280;59072;42.144;25.200;2023-07-24T12:59:18;99853.59;;;39.11;18.83
71149;BME280;59072;42.144;25.200;2023-07-24T13:01:45;99860.38;;;39.41;18.04
71149;BME280;59072;42.144;25.200;2023-07-24T13:04:11;99857.88;;;39.20;18.03
71149;BME280;59072;42.144;25.200;2023-07-24T13:06:36;99862.22;;;39.21;17.33
71149;BME280;59072;42.144;25.200;2023-07-24T13:09:02;99862.88;;;39.32;18.08
71149;BME280;59072;42.144;25.200;2023-07-24T13:11:28;99858.38;;;39.69;17.88
71149;BME280;59072;42.144;25.200;2023-07-24T13:13:54;99840.09;;;39.64;18.68
71149;BME280;59072;42.144;25.200;2023-07-24T13:16:20;99849.97;;;39.96;17.87
71149;BME280;59072;42.144;25.200;2023-07-24T13:18:45;99844.63;;;40.25;16.76
71149;BME280;59072;42.144;25.200;2023-07-24T13:21:11;99838.69;;;40.23;16.55
71149;BME280;59072;42.144;25.200;2023-07-24T13:23:36;99846.13;;;39.86;16.51
71149;BME280;59072;42.144;25.200;2023-07-24T13:26:02;99845.28;;;39.89;16.78
71149;BME280;59072;42.144;25.200;2023-07-24T13:28:28;99840.38;;;39.46;17.33
71149;BME280;59072;42.144;25.200;2023-07-24T13:30:53;99836.44;;;39.44;17.41
71149;BME280;59072;42.144;25.200;2023-07-24T13:33:18;99840.28;;;39.77;16.23